Time;durP1;ratioP1;P1;durP2;ratioP2;P2;SDS_P1;SDS_P2;PMS_P1;PMS_P2;Temp;Humidity;BMP_temperature;BMP_pressure;BME280_temperature;BME280_humidity;BME280_pressure;Samples;Min_cycle;Max_cycle;Signal;HPM_P1;HPM_P2
2023/10/25 00:02:06;;;;;;;2.08;1.88;;;;;;;-145.63;42.56;39290.22;5003435;28;20041;-65
2023/10/25 00:04:32;;;;;;;2.90;2.30;;;;;;;-145.63;42.25;39325.41;5003440;28;20033;-65
2023/10/25 00:06:58;;;;;;;2.85;2.22;;;;;;;-145.63;42.24;39339.13;5002860;28;20057;-65
2023/10/25 00:09:23;;;;;;;2.58;1.95;;;;;;;-145.63;41.88;39301.94;5003118;28;20306;-65
2023/10/25 00:11:50;;;;;;;3.05;2.10;;;;;;;-145.63;42.43;39317.59;5003199;28;20030;-66
2023/10/25 00:14:15;;;;;;;3.60;2.25;;;;;;;-145.63;42.13;39317.59;5003575;28;20033;-66
2023/10/25 00:16:41;;;;;;;4.05;2.25;;;;;;;-145.63;42.17;39313.69;5013243;28;20026;-66
2023/10/25 00:19:07;;;;;;;2.50;2.30;;;;;;;-145.63;42.10;39348.88;5010616;28;20037;-66
2023/10/25 00:21:33;;;;;;;3.92;1.95;;;;;;;-145.63;40.51;39282.41;5003703;28;20041;-66
2023/10/25 00:23:59;;;;;;;2.08;1.75;;;;;;;-145.63;41.10;39468.19;5003068;28;20242;-65
2023/10/25 00:26:24;;;;;;;3.08;1.90;;;;;;;-145.63;40.87;39337.16;5003451;28;20022;-64
2023/10/25 00:28:50;;;;;;;2.25;1.70;;;;;;;-145.63;41.19;39325.41;5013493;28;20034;-64
2023/10/25 00:31:16;;;;;;;4.20;1.70;;;;;;;-145.63;41.01;39301.94;4985576;28;20211;-64
2023/10/25 00:33:42;;;;;;;2.92;1.73;;;;;;;-145.63;40.55;39327.38;5002780;28;20027;-64
2023/10/25 00:36:07;;;;;;;2.45;1.88;;;;;;;-145.63;40.86;39337.16;5004141;28;20035;-63
2023/10/25 00:38:33;;;;;;;3.25;2.00;;;;;;;-145.63;41.26;39315.66;5003103;28;20030;-67
2023/10/25 00:40:59;;;;;;;1.63;1.52;;;;;;;-145.63;40.74;39313.69;5002967;28;20353;-66
2023/10/25 00:43:24;;;;;;;3.13;2.00;;;;;;;-145.63;40.26;39313.69;5003177;28;20433;-64
2023/10/25 00:46:01;;;;;;;2.55;1.77;;;;;;;-145.63;40.21;39317.59;5002826;28;20073;-65
2023/10/25 00:48:28;;;;;;;5.20;1.80;;;;;;;-145.63;40.57;39323.47;5002919;28;20022;-65
2023/10/25 00:50:54;;;;;;;2.92;1.70;;;;;;;-145.63;40.55;39298.03;5002928;28;20230;-67
2023/10/25 00:53:22;;;;;;;2.00;1.80;;;;;;;-145.63;40.61;39344.97;4988063;28;20054;-65
2023/10/25 00:55:48;;;;;;;3.15;1.80;;;;;;;-145.63;39.80;39296.09;5015581;28;20068;-65
2023/10/25 00:58:13;;;;;;;2.40;1.65;;;;;;;-145.63;39.67;39325.41;5026450;28;20034;-67
2023/10/25 01:00:39;;;;;;;2.60;1.85;;;;;;;-145.63;39.87;39305.88;5018229;28;20018;-65
2023/10/25 01:03:07;;;;;;;2.40;1.90;;;;;;;-145.63;39.50;39301.94;5006543;28;20282;-65
2023/10/25 01:05:33;;;;;;;2.92;1.83;;;;;;;-145.63;40.11;39344.97;5017474;28;20046;-64
2023/10/25 01:07:59;;;;;;;2.35;2.00;;;;;;;-145.63;39.02;39329.34;5001176;28;20071;-64
2023/10/25 01:10:25;;;;;;;1.90;1.70;;;;;;;-145.63;39.18;39309.78;4983688;28;20038;-65
2023/10/25 01:12:51;;;;;;;3.08;1.70;;;;;;;-145.63;39.71;39290.22;5006443;28;20214;-66
2023/10/25 01:15:22;;;;;;;3.10;1.88;;;;;;;-145.63;39.35;38396.53;5006191;28;20037;-64
2023/10/25 01:17:48;;;;;;;4.03;1.80;;;;;;;-145.63;39.21;39319.56;5023992;28;20058;-64
2023/10/25 01:20:13;;;;;;;2.78;1.90;;;;;;;-145.63;39.91;39303.91;5006013;28;20031;-65
2023/10/25 01:22:39;;;;;;;2.72;1.83;;;;;;;-145.63;39.53;39321.50;5011259;28;20093;-64
2023/10/25 01:25:05;;;;;;;1.98;1.50;;;;;;;-145.63;39.53;39294.13;5005915;28;20030;-64
2023/10/25 01:27:31;;;;;;;3.38;1.98;;;;;;;-145.63;39.07;39298.03;5006412;28;20026;-65
2023/10/25 01:29:56;;;;;;;2.47;1.85;;;;;;;-145.63;39.26;39331.28;5006088;28;20530;-66
2023/10/25 01:32:22;;;;;;;2.72;1.85;;;;;;;-145.63;39.29;39331.28;5006039;28;20030;-65
2023/10/25 01:34:48;;;;;;;2.00;1.75;;;;;;;-145.63;39.62;39307.81;5006014;28;20200;-66
2023/10/25 01:37:13;;;;;;;2.88;2.17;;;;;;;-145.63;39.91;39343.03;5010771;28;20187;-66
2023/10/25 01:39:39;;;;;;;2.60;2.17;;;;;;;-145.63;40.15;39313.69;5006341;28;20080;-65
2023/10/25 01:42:05;;;;;;;1.98;1.77;;;;;;;-145.63;39.49;39294.13;5001167;28;20091;-65
2023/10/25 01:44:32;;;;;;;2.45;1.92;;;;;;;-145.63;39.45;39309.78;4986496;28;20060;-64
2023/10/25 01:46:57;;;;;;;3.80;2.13;;;;;;;-145.63;39.75;39300.00;5004811;28;20306;-66
2023/10/25 01:49:23;;;;;;;3.03;2.08;;;;;;;-145.63;39.83;39288.25;5003305;28;20084;-66
2023/10/25 01:51:49;;;;;;;3.45;2.00;;;;;;;-145.63;39.24;39309.78;5005374;28;20061;-66
2023/10/25 01:54:15;;;;;;;3.90;1.98;;;;;;;-145.63;39.77;39077.06;5005816;28;20226;-66
2023/10/25 01:56:42;;;;;;;2.80;2.05;;;;;;;-145.63;40.07;39305.88;5005393;28;20050;-65
2023/10/25 01:59:07;;;;;;;2.75;1.92;;;;;;;-145.63;38.98;39321.50;5005327;28;20037;-64
2023/10/25 02:01:33;;;;;;;2.03;1.80;;;;;;;-145.63;39.52;39284.34;5014122;28;20022;-64
2023/10/25 02:03:59;;;;;;;2.28;1.98;;;;;;;-145.63;39.10;39319.56;5020737;28;20043;-63
2023/10/25 02:06:25;;;;;;;3.15;1.73;;;;;;;-145.63;39.43;39313.69;5023696;28;20026;-66
2023/10/25 02:08:50;;;;;;;2.38;1.90;;;;;;;-145.63;39.02;39300.00;5025003;28;20034;-65
2023/10/25 02:11:16;;;;;;;2.03;1.80;;;;;;;-145.63;39.09;39278.47;5007600;28;20033;-66
2023/10/25 02:13:42;;;;;;;2.88;1.80;;;;;;;-145.63;39.73;39305.88;5005446;28;20033;-67
2023/10/25 02:16:13;;;;;;;3.22;1.80;;;;;;;-145.63;39.32;39360.63;5005322;28;20033;-67
2023/10/25 02:18:38;;;;;;;2.55;1.70;;;;;;;-145.63;39.56;39313.69;4987935;28;20225;-67
2023/10/25 02:21:24;;;;;;;3.78;2.30;;;;;;;-145.63;39.75;39313.69;4996217;28;20026;-66
2023/10/25 02:23:50;;;;;;;3.90;2.20;;;;;;;-145.63;39.84;39300.00;5005105;28;20369;-67
2023/10/25 02:26:15;;;;;;;2.47;1.90;;;;;;;-145.63;39.60;39290.22;5005013;28;20042;-67
2023/10/25 02:28:41;;;;;;;2.28;2.00;;;;;;;-145.63;38.88;39300.00;5005048;28;20030;-66
2023/10/25 02:31:06;;;;;;;2.45;2.00;;;;;;;-145.63;39.73;39298.03;4987568;28;20214;-66
2023/10/25 02:33:32;;;;;;;5.78;2.05;;;;;;;-145.63;39.23;39354.75;5005156;28;20064;-66
2023/10/25 02:35:58;;;;;;;3.70;1.80;;;;;;;-145.63;39.20;39305.88;5015188;28;20064;-67
2023/10/25 02:38:23;;;;;;;3.85;2.58;;;;;;;-145.63;40.28;39309.78;4988841;28;20027;-65
2023/10/25 02:40:49;;;;;;;3.20;1.90;;;;;;;-145.63;38.99;39311.72;5007490;28;20083;-66
2023/10/25 02:43:15;;;;;;;3.42;1.98;;;;;;;-145.63;38.67;39321.50;5015623;28;20022;-64
2023/10/25 02:45:40;;;;;;;2.70;2.17;;;;;;;-145.63;38.78;39298.03;5004753;28;20026;-65
2023/10/25 02:48:12;;;;;;;3.85;1.92;;;;;;;-145.63;39.05;39286.31;4984726;28;20030;-65
2023/10/25 02:50:38;;;;;;;4.85;2.50;;;;;;;-145.63;39.55;39301.94;4985671;28;20042;-65
2023/10/25 02:53:03;;;;;;;3.45;2.05;;;;;;;-145.63;39.43;39301.94;4979554;28;20353;-66
2023/10/25 02:55:29;;;;;;;2.10;2.00;;;;;;;-145.63;39.45;39317.59;4985245;28;20077;-66
2023/10/25 02:57:55;;;;;;;3.47;2.28;;;;;;;-145.63;40.15;39335.19;4985055;28;20034;-66
2023/10/25 03:00:20;;;;;;;5.57;2.58;;;;;;;-145.63;40.04;39309.78;4983925;28;20023;-65
2023/10/25 03:02:46;;;;;;;3.05;2.30;;;;;;;-145.63;40.09;39298.03;5003345;28;20022;-64
2023/10/25 03:05:12;;;;;;;3.47;2.25;;;;;;;-145.63;40.42;39305.88;4987748;28;20023;-64
2023/10/25 03:07:37;;;;;;;3.67;2.78;;;;;;;-145.63;40.41;39331.28;4984520;28;20035;-65
2023/10/25 03:10:03;;;;;;;4.57;2.75;;;;;;;-145.63;40.09;39341.06;4983222;28;20050;-66
2023/10/25 03:12:30;;;;;;;2.55;2.13;;;;;;;-145.63;40.26;39309.78;4984949;28;20039;-66
2023/10/25 03:14:55;;;;;;;4.35;2.38;;;;;;;-145.63;39.88;39319.56;4982735;28;20074;-66
2023/10/25 03:17:21;;;;;;;5.80;2.50;;;;;;;-145.63;39.24;39317.59;4984319;28;20026;-65
2023/10/25 03:19:47;;;;;;;2.97;2.35;;;;;;;-145.63;39.66;39329.34;4984350;28;20073;-63
2023/10/25 03:22:13;;;;;;;3.63;2.40;;;;;;;-145.63;40.10;39325.41;4990532;28;20035;-65
2023/10/25 03:24:38;;;;;;;5.47;3.00;;;;;;;-145.63;39.83;39274.56;4984503;28;20326;-64
2023/10/25 03:27:07;;;;;;;3.45;2.47;;;;;;;-145.63;39.90;39319.56;5000360;28;20034;-64
2023/10/25 03:29:36;;;;;;;3.58;2.75;;;;;;;-145.63;39.88;39309.78;4984526;28;20031;-66
2023/10/25 03:32:02;;;;;;;2.95;2.00;;;;;;;-145.63;39.74;39305.88;4984084;28;20022;-64
2023/10/25 03:34:29;;;;;;;4.55;2.60;;;;;;;-145.63;39.77;39290.22;4983057;28;20072;-64
2023/10/25 03:36:55;;;;;;;4.30;2.65;;;;;;;-145.63;39.64;39276.53;4984380;28;20037;-64
2023/10/25 03:39:20;;;;;;;4.38;2.47;;;;;;;-145.63;39.75;39301.94;4984090;28;20093;-64
2023/10/25 03:41:46;;;;;;;3.03;2.53;;;;;;;-145.63;40.05;39341.06;5001603;28;20034;-63
2023/10/25 03:44:13;;;;;;;3.65;2.40;;;;;;;-145.63;40.14;39315.66;4986489;28;20065;-66
2023/10/25 03:46:38;;;;;;;3.03;2.58;;;;;;;-145.63;40.36;39303.91;4984365;28;20054;-65
2023/10/25 03:49:05;;;;;;;2.95;1.92;;;;;;;-145.63;39.77;39282.41;4983487;28;20053;-67
2023/10/25 03:51:31;;;;;;;5.45;2.00;;;;;;;-145.63;40.19;39301.94;4982507;28;20046;-67
2023/10/25 03:53:57;;;;;;;2.55;2.25;;;;;;;-145.63;40.34;39300.00;5003395;28;20057;-66
2023/10/25 03:56:23;;;;;;;3.35;2.40;;;;;;;-145.63;40.04;39278.47;5003527;28;20097;-66
2023/10/25 03:58:48;;;;;;;3.38;2.05;;;;;;;-145.63;40.04;39305.88;5003398;28;20318;-66
2023/10/25 04:01:14;;;;;;;4.72;2.58;;;;;;;-145.63;39.99;39321.50;4985682;28;20073;-66
2023/10/25 04:03:41;;;;;;;3.47;2.55;;;;;;;-145.63;39.77;39325.41;5003452;28;20034;-67
2023/10/25 04:06:08;;;;;;;3.40;2.05;;;;;;;-145.63;40.39;39301.94;5007593;28;20026;-66
2023/10/25 04:08:33;;;;;;;4.60;2.83;;;;;;;-145.63;40.03;39298.03;5022592;28;20026;-66
2023/10/25 04:11:00;;;;;;;4.05;2.78;;;;;;;-145.63;40.31;39278.47;4991959;28;20278;-67
2023/10/25 04:13:26;;;;;;;3.85;2.28;;;;;;;-145.63;39.55;39307.81;5012990;28;20084;-66
2023/10/25 04:15:57;;;;;;;3.22;2.10;;;;;;;-145.63;40.28;39290.22;5002309;28;20058;-65
2023/10/25 04:18:24;;;;;;;3.78;2.55;;;;;;;-145.63;39.81;39266.75;5002984;28;20044;-67
2023/10/25 04:20:51;;;;;;;3.25;2.30;;;;;;;-145.63;39.98;39288.25;5005849;28;20053;-66
2023/10/25 04:23:17;;;;;;;3.53;2.30;;;;;;;-145.63;39.81;39317.59;5006657;28;20105;-66
2023/10/25 04:25:43;;;;;;;4.22;2.88;;;;;;;-145.63;40.23;39274.56;5003050;28;20030;-66
2023/10/25 04:28:09;;;;;;;3.47;2.33;;;;;;;-145.63;40.07;39272.63;5006971;28;20364;-66
2023/10/25 04:30:35;;;;;;;2.25;2.05;;;;;;;-145.63;39.46;39323.47;5006909;28;20034;-66
2023/10/25 04:33:02;;;;;;;2.83;2.17;;;;;;;-145.63;39.43;39337.16;5006712;28;20303;-65
2023/10/25 04:35:28;;;;;;;4.28;2.40;;;;;;;-145.63;39.67;39301.94;5007021;28;20038;-65
2023/10/25 04:37:55;;;;;;;6.40;2.50;;;;;;;-145.63;40.00;39165.06;5006359;28;20022;-65
2023/10/25 04:40:24;;;;;;;5.35;2.42;;;;;;;-145.63;40.05;39317.59;5004092;28;20034;-66
2023/10/25 04:42:50;;;;;;;5.03;2.53;;;;;;;-145.63;40.15;39286.31;4985737;28;20026;-65
2023/10/25 04:45:16;;;;;;;4.20;2.40;;;;;;;-145.63;39.82;39309.78;4995299;28;20030;-66
2023/10/25 04:47:42;;;;;;;4.35;2.63;;;;;;;-145.63;39.60;39276.53;5006877;28;20374;-66
2023/10/25 04:50:08;;;;;;;3.75;2.40;;;;;;;-145.63;40.00;39296.09;5001849;28;20022;-65
2023/10/25 04:52:34;;;;;;;4.88;2.33;;;;;;;-145.63;40.10;39270.66;5006991;28;20271;-65
2023/10/25 04:55:00;;;;;;;5.50;2.90;;;;;;;-145.63;40.37;39284.34;5006243;28;20022;-66
2023/10/25 04:57:25;;;;;;;2.88;2.50;;;;;;;-145.63;40.11;39284.34;5006507;28;20116;-67
2023/10/25 04:59:53;;;;;;;4.30;2.22;;;;;;;-145.63;39.68;39153.31;5006790;28;20029;-67
2023/10/25 05:02:19;;;;;;;3.30;2.30;;;;;;;-145.63;39.88;39278.47;5021120;28;20029;-66
2023/10/25 05:04:45;;;;;;;4.47;2.42;;;;;;;-145.63;40.02;39251.09;5014464;28;20327;-67
2023/10/25 05:07:11;;;;;;;6.03;2.70;;;;;;;-145.63;39.92;39296.09;5006281;28;20083;-67
2023/10/25 05:09:37;;;;;;;8.13;2.70;;;;;;;-145.63;40.19;39274.56;5006110;28;20030;-67
2023/10/25 05:12:06;;;;;;;3.83;2.10;;;;;;;-145.63;39.21;39270.66;5005624;28;20034;-66
2023/10/25 05:14:36;;;;;;;2.72;2.03;;;;;;;-145.63;38.84;39303.91;5005768;28;20317;-66
2023/10/25 05:17:02;;;;;;;3.47;2.40;;;;;;;-145.63;39.52;39280.44;5017676;28;20096;-66
2023/10/25 05:19:28;;;;;;;3.15;1.98;;;;;;;-145.63;39.31;39255.00;5015918;28;20215;-66
2023/10/25 05:21:55;;;;;;;4.20;2.13;;;;;;;-145.63;39.17;39301.94;5012507;28;20094;-65
2023/10/25 05:24:22;;;;;;;6.30;2.53;;;;;;;-145.63;39.34;39266.75;5005676;28;20030;-66
2023/10/25 05:26:48;;;;;;;3.40;1.90;;;;;;;-145.63;39.08;39268.72;5005619;28;20079;-66
2023/10/25 05:29:14;;;;;;;2.67;1.98;;;;;;;-145.63;38.67;39278.47;5005525;28;20026;-66
2023/10/25 05:31:44;;;;;;;5.72;2.40;;;;;;;-145.63;38.84;39251.09;5004427;28;20028;-65
2023/10/25 05:34:10;;;;;;;1.90;1.70;;;;;;;-145.63;38.58;39276.53;5005170;28;20452;-68
2023/10/25 05:36:38;;;;;;;2.13;1.92;;;;;;;-145.63;38.79;39266.75;5005477;28;20085;-65
2023/10/25 05:39:07;;;;;;;2.00;1.77;;;;;;;-145.63;38.48;39278.47;4989557;28;20061;-66
2023/10/25 05:41:38;;;;;;;3.08;1.98;;;;;;;-145.63;38.75;39243.28;4996794;28;20029;-67
2023/10/25 05:44:13;;;;;;;5.85;1.98;;;;;;;-145.63;38.41;39350.84;5011355;28;20045;-66
2023/10/25 05:46:38;;;;;;;2.53;2.00;;;;;;;-145.63;37.63;39307.81;4988218;28;20045;-65
2023/10/25 05:49:04;;;;;;;4.10;2.00;;;;;;;-145.63;37.42;39274.56;5006019;28;20163;-66
2023/10/25 05:51:31;;;;;;;3.88;2.00;;;;;;;-145.63;37.66;39258.94;5005511;28;20090;-66
2023/10/25 05:53:57;;;;;;;5.43;2.28;;;;;;;-145.63;37.90;39294.13;5005504;28;20030;-66
2023/10/25 05:56:26;;;;;;;4.07;1.95;;;;;;;-145.63;37.65;39266.75;4988190;28;20056;-65
2023/10/25 05:58:55;;;;;;;4.43;1.90;;;;;;;-145.63;37.99;39282.41;5005233;28;20094;-66
2023/10/25 06:01:42;;;;;;;2.35;2.00;;;;;;;-145.63;38.52;39262.84;5011910;28;20214;-65
2023/10/25 06:04:11;;;;;;;2.13;1.92;;;;;;;-145.63;38.34;39251.09;5018716;28;20037;-65
2023/10/25 06:06:40;;;;;;;2.95;1.90;;;;;;;-145.63;37.74;39321.50;5005359;28;20050;-65
2023/10/25 06:09:06;;;;;;;2.65;2.03;;;;;;;-145.63;38.34;39288.25;5005198;28;20085;-66
2023/10/25 06:11:32;;;;;;;3.00;1.90;;;;;;;-145.63;38.62;39290.22;5004931;28;20026;-66
2023/10/25 06:13:58;;;;;;;4.07;1.98;;;;;;;-145.63;37.66;39266.75;5004520;28;20023;-66
2023/10/25 06:16:24;;;;;;;2.53;2.20;;;;;;;-145.63;37.56;39296.09;5005214;28;20441;-66
2023/10/25 06:18:49;;;;;;;2.35;2.00;;;;;;;-145.63;37.39;39294.13;5005046;28;20032;-67
2023/10/25 06:21:15;;;;;;;6.25;2.20;;;;;;;-145.63;37.61;39262.84;5011377;28;20021;-66
2023/10/25 06:23:40;;;;;;;5.00;2.35;;;;;;;-145.63;37.86;39239.38;5006114;28;20032;-66
2023/10/25 06:26:06;;;;;;;2.80;2.03;;;;;;;-145.63;38.31;39264.78;5004188;28;20195;-67
2023/10/25 06:28:35;;;;;;;3.72;1.63;;;;;;;-145.63;37.50;39266.75;5005321;28;20038;-67
2023/10/25 06:31:01;;;;;;;5.85;2.13;;;;;;;-145.63;37.63;39290.22;5004338;28;20113;-65
2023/10/25 06:33:26;;;;;;;5.07;2.10;;;;;;;-145.63;37.71;39264.78;5004827;28;20480;-65
2023/10/25 06:35:53;;;;;;;3.42;2.20;;;;;;;-145.63;37.80;39256.97;5003888;28;20069;-65
2023/10/25 06:38:19;;;;;;;3.08;1.88;;;;;;;-145.63;37.42;39243.28;5004850;28;20026;-66
2023/10/25 06:40:45;;;;;;;4.43;2.10;;;;;;;-145.63;37.45;39278.47;5006771;28;20105;-65
2023/10/25 06:43:11;;;;;;;3.65;2.03;;;;;;;-145.63;37.40;39227.63;5000727;28;20014;-66
2023/10/25 06:45:37;;;;;;;3.58;1.90;;;;;;;-145.63;36.88;39264.78;5004511;28;20089;-66
2023/10/25 06:48:03;;;;;;;3.60;2.30;;;;;;;-145.63;37.38;39262.84;5004197;28;20045;-67
2023/10/25 06:50:29;;;;;;;3.33;2.22;;;;;;;-145.63;36.53;39274.56;4987141;28;20026;-67
2023/10/25 06:52:55;;;;;;;6.18;2.53;;;;;;;-145.63;37.27;39247.19;5015340;28;20337;-66
2023/10/25 06:55:21;;;;;;;6.18;3.13;;;;;;;-145.63;37.57;39251.09;5016680;28;20077;-66
2023/10/25 06:57:48;;;;;;;4.82;2.47;;;;;;;-145.63;37.66;39272.63;5004228;28;20113;-65
2023/10/25 07:00:14;;;;;;;3.67;2.13;;;;;;;-145.63;36.97;39253.06;5004221;28;20042;-66
2023/10/25 07:03:01;;;;;;;2.95;2.10;;;;;;;-145.63;37.48;39274.56;5022502;28;20021;-66
2023/10/25 07:05:28;;;;;;;3.35;2.15;;;;;;;-145.63;37.07;39247.19;5007829;28;20397;-66
2023/10/25 07:07:55;;;;;;;3.92;2.22;;;;;;;-145.63;36.97;39256.97;5017334;28;20097;-67
2023/10/25 07:10:21;;;;;;;3.85;2.10;;;;;;;-145.63;37.07;39249.16;5016594;28;20022;-66
2023/10/25 07:12:47;;;;;;;2.60;1.90;;;;;;;-145.63;37.14;39274.56;5004263;28;20302;-66
2023/10/25 07:15:13;;;;;;;2.97;1.98;;;;;;;-145.63;37.23;39245.25;5004416;28;20053;-67
2023/10/25 07:17:39;;;;;;;5.70;2.45;;;;;;;-145.63;37.21;39255.00;5004239;28;20026;-66
2023/10/25 07:20:06;;;;;;;5.15;1.90;;;;;;;-145.63;36.83;39262.84;5003831;28;20076;-65
2023/10/25 07:22:32;;;;;;;5.82;1.92;;;;;;;-145.63;37.51;39243.28;5012860;28;20106;-64
2023/10/25 07:24:58;;;;;;;2.53;1.92;;;;;;;-145.63;37.60;39288.25;5003771;28;20018;-64
2023/10/25 07:27:24;;;;;;;2.88;1.92;;;;;;;-145.63;37.19;39247.19;5004081;28;20325;-65
2023/10/25 07:29:50;;;;;;;3.60;2.22;;;;;;;-145.63;37.09;39239.38;5003713;28;20027;-66
2023/10/25 07:32:15;;;;;;;3.38;2.42;;;;;;;-145.63;37.69;39213.94;4986504;28;20038;-66
2023/10/25 07:34:41;;;;;;;2.90;1.83;;;;;;;-145.63;37.35;39280.44;5003647;28;20326;-67
2023/10/25 07:37:07;;;;;;;3.13;2.25;;;;;;;-145.63;37.38;39272.63;5003575;28;20287;-66
2023/10/25 07:39:33;;;;;;;3.92;2.33;;;;;;;-145.63;37.86;39294.13;5003818;28;20096;-65
2023/10/25 07:42:01;;;;;;;2.05;1.83;;;;;;;-145.63;38.08;39298.03;5015936;28;20336;-65
2023/10/25 07:44:28;;;;;;;4.22;2.40;;;;;;;-145.63;37.47;39233.50;5007961;28;20054;-66
2023/10/25 07:46:53;;;;;;;5.25;2.70;;;;;;;-145.63;36.77;39272.63;5003485;28;20068;-66
2023/10/25 07:49:19;;;;;;;2.95;2.10;;;;;;;-145.63;37.29;39247.19;5003665;28;20057;-67
2023/10/25 07:51:44;;;;;;;3.72;2.10;;;;;;;-145.63;37.10;39233.50;4986186;28;20071;-66
2023/10/25 07:54:10;;;;;;;6.88;2.80;;;;;;;-145.63;37.95;39262.84;5005795;28;20278;-65
2023/10/25 07:56:36;;;;;;;5.75;3.05;;;;;;;-145.63;37.69;39239.38;5015210;28;20022;-67
2023/10/25 07:59:01;;;;;;;5.45;2.40;;;;;;;-145.63;37.16;39270.66;5004042;28;20026;-65
2023/10/25 08:01:27;;;;;;;7.45;2.40;;;;;;;-145.63;37.07;39247.19;5010561;28;20018;-67
2023/10/25 08:03:53;;;;;;;4.78;2.42;;;;;;;-145.63;37.21;39241.31;5020066;28;20341;-66
2023/10/25 08:06:19;;;;;;;2.15;1.95;;;;;;;-145.63;37.46;39237.41;5011159;28;20029;-66
2023/10/25 08:08:44;;;;;;;2.85;2.10;;;;;;;-145.63;37.29;39258.94;5023071;28;20028;-66
2023/10/25 08:11:10;;;;;;;3.72;1.98;;;;;;;-145.63;37.31;39221.78;5010072;28;20050;-66
2023/10/25 08:13:38;;;;;;;4.28;2.30;;;;;;;-145.63;37.23;39253.06;5003357;28;20030;-66
2023/10/25 08:16:04;;;;;;;2.70;2.17;;;;;;;-145.63;37.33;39225.69;5003181;28;20122;-66
2023/10/25 08:18:31;;;;;;;4.05;2.60;;;;;;;-145.63;37.01;39235.47;5017912;28;20026;-65
2023/10/25 08:20:58;;;;;;;5.28;2.17;;;;;;;-145.63;37.55;39286.31;4994237;28;20026;-68
2023/10/25 08:23:24;;;;;;;2.67;2.00;;;;;;;-145.63;37.21;39284.34;4999744;28;20358;-66
2023/10/25 08:25:51;;;;;;;4.25;2.35;;;;;;;-145.63;36.66;39243.28;4994196;28;20030;-66
2023/10/25 08:28:17;;;;;;;9.20;2.75;;;;;;;-145.63;37.00;39223.72;4998906;28;20022;-66
2023/10/25 08:30:43;;;;;;;2.80;1.80;;;;;;;-145.63;37.08;39294.13;4982713;28;20226;-67
2023/10/25 08:33:10;;;;;;;3.08;1.85;;;;;;;-145.63;36.79;39251.09;4993001;28;20341;-66
2023/10/25 08:35:37;;;;;;;2.45;1.92;;;;;;;-145.63;36.91;39225.69;4993985;28;20042;-67
2023/10/25 08:38:06;;;;;;;5.25;2.50;;;;;;;-145.63;37.47;39247.19;4995349;28;20311;-66
2023/10/25 08:40:32;;;;;;;6.00;2.90;;;;;;;-145.63;37.07;39270.66;5010585;28;20026;-65
2023/10/25 08:42:59;;;;;;;7.22;5.32;;;;;;;-145.63;36.29;39255.00;5019663;28;20034;-65
2023/10/25 08:45:25;;;;;;;2.97;2.20;;;;;;;-145.63;36.66;39262.84;5002781;28;20338;-66
2023/10/25 08:47:51;;;;;;;4.70;2.42;;;;;;;-145.63;36.72;39284.34;4985264;28;20026;-66
2023/10/25 08:50:20;;;;;;;6.00;2.75;;;;;;;-145.63;36.80;39276.53;5001844;28;20052;-67
2023/10/25 08:52:49;;;;;;;3.30;2.08;;;;;;;-145.63;35.74;39266.75;5000743;28;20105;-65
2023/10/25 08:55:17;;;;;;;6.97;2.75;;;;;;;-145.63;36.13;38423.91;4999395;28;20026;-66
2023/10/25 08:57:44;;;;;;;5.30;2.00;;;;;;;-145.63;35.89;39251.09;4992885;28;20038;-66
2023/10/25 09:00:12;;;;;;;4.90;2.50;;;;;;;-145.63;35.66;39274.56;4993631;28;20026;-67
2023/10/25 09:02:39;;;;;;;4.03;2.33;;;;;;;-145.63;35.93;39247.19;4998917;28;20094;-66
2023/10/25 09:05:08;;;;;;;4.40;2.53;;;;;;;-145.63;36.08;39266.75;5000017;28;20026;-67
2023/10/25 09:07:36;;;;;;;3.15;1.70;;;;;;;-145.63;36.21;39233.50;4998924;28;20068;-68
2023/10/25 09:10:15;;;;;;;4.45;2.22;;;;;;;-145.63;36.59;39247.19;4993198;28;20030;-66
2023/10/25 09:12:41;;;;;;;3.95;2.00;;;;;;;-145.63;36.06;39241.31;4993709;28;20199;-66
2023/10/25 09:15:07;;;;;;;3.90;2.58;;;;;;;-145.63;36.27;39251.09;4997542;28;20018;-67
2023/10/25 09:17:35;;;;;;;3.70;2.30;;;;;;;-145.63;36.00;39245.25;5006863;28;20030;-64
2023/10/25 09:20:01;;;;;;;4.10;2.28;;;;;;;-145.63;36.19;39255.00;4988634;28;20030;-66
2023/10/25 09:22:28;;;;;;;2.10;1.90;;;;;;;-145.63;35.40;39292.19;5004715;28;20029;-65
2023/10/25 09:24:56;;;;;;;3.15;1.90;;;;;;;-145.63;35.39;39294.13;5000236;28;20041;-66
2023/10/25 09:27:23;;;;;;;3.83;2.00;;;;;;;-145.63;35.57;39256.97;4995290;28;20026;-65
2023/10/25 09:29:50;;;;;;;4.25;2.55;;;;;;;-145.63;35.54;39290.22;4996856;28;20046;-65
2023/10/25 09:32:20;;;;;;;3.00;2.50;;;;;;;-145.63;35.02;39262.84;4997841;28;20069;-64
2023/10/25 09:34:47;;;;;;;2.80;2.50;;;;;;;-145.63;34.90;39276.53;4997672;28;20256;-65
2023/10/25 09:37:13;;;;;;;4.40;2.33;;;;;;;-145.63;35.31;39266.75;4999775;28;20026;-65
2023/10/25 09:39:39;;;;;;;4.75;2.97;;;;;;;-145.63;35.05;39262.84;4994805;28;20035;-65
2023/10/25 09:42:09;;;;;;;2.67;2.08;;;;;;;-145.63;35.21;39282.41;5007815;28;20340;-64
2023/10/25 09:44:45;;;;;;;4.38;2.40;;;;;;;-145.63;35.52;39258.94;5006116;28;20033;-64
2023/10/25 09:47:12;;;;;;;4.18;2.50;;;;;;;-145.63;35.50;39253.06;4998611;28;20034;-64
2023/10/25 09:49:42;;;;;;;5.28;2.53;;;;;;;-145.63;35.81;39301.94;4997108;28;20180;-64
2023/10/25 09:52:29;;;;;;;5.65;2.50;;;;;;;-145.63;35.46;39264.78;4995923;28;20161;-64
2023/10/25 09:55:25;;;;;;;5.78;2.88;;;;;;;-145.63;35.45;39268.72;5004275;28;20034;-64
2023/10/25 09:57:55;;;;;;;5.68;2.67;;;;;;;-145.63;35.68;39241.31;5003980;28;20050;-65
2023/10/25 10:00:21;;;;;;;3.88;2.40;;;;;;;-145.63;35.49;39278.47;5004225;28;20106;-64
2023/10/25 10:03:24;;;;;;;3.55;2.40;;;;;;;-145.63;35.82;39264.78;4999082;28;20294;-64
2023/10/25 10:06:22;;;;;;;5.55;2.40;;;;;;;-145.63;36.37;39268.72;5002349;28;20073;-65
2023/10/25 10:09:01;;;;;;;3.35;2.03;;;;;;;-145.63;35.95;39233.50;4998094;28;20350;-65
2023/10/25 10:11:36;;;;;;;3.83;2.40;;;;;;;-145.63;36.04;39311.72;4999466;28;20098;-64
2023/10/25 10:14:27;;;;;;;4.50;2.60;;;;;;;-145.63;36.13;39255.00;5004888;28;20038;-64
2023/10/25 10:17:02;;;;;;;5.05;2.13;;;;;;;-145.63;35.91;39253.06;5004879;28;20045;-64
2023/10/25 10:19:31;;;;;;;5.75;2.38;;;;;;;-145.63;35.91;39294.13;4999403;28;20096;-65
2023/10/25 10:22:13;;;;;;;3.85;2.10;;;;;;;-145.63;35.91;39241.31;5000047;28;20022;-64
2023/10/25 10:24:43;;;;;;;2.47;1.92;;;;;;;-145.63;36.41;39225.69;4995871;28;20029;-65
2023/10/25 10:27:10;;;;;;;4.43;2.30;;;;;;;-145.63;36.47;39229.59;4996087;28;20339;-64
2023/10/25 10:29:37;;;;;;;4.28;2.45;;;;;;;-145.63;36.40;39247.19;4997837;28;20018;-64
2023/10/25 10:32:05;;;;;;;4.88;2.20;;;;;;;-145.63;36.04;39266.75;5004606;28;20069;-64
2023/10/25 10:34:41;;;;;;;5.15;3.00;;;;;;;-145.63;36.27;39255.00;4994635;28;20033;-64
2023/10/25 10:37:09;;;;;;;6.95;3.35;;;;;;;-145.63;36.17;39260.88;5002645;28;20191;-64
2023/10/25 10:39:37;;;;;;;8.63;3.53;;;;;;;-145.63;36.27;39272.63;5005805;28;20105;-64
2023/10/25 10:42:03;;;;;;;4.00;2.22;;;;;;;-145.63;36.25;39262.84;5009586;28;20026;-65
2023/10/25 10:44:28;;;;;;;3.15;2.63;;;;;;;-145.63;36.13;39239.38;5004115;28;20306;-66
2023/10/25 10:47:00;;;;;;;5.22;2.70;;;;;;;-145.63;36.40;39256.97;5009376;28;20310;-66
2023/10/25 10:49:30;;;;;;;5.38;2.72;;;;;;;-145.63;36.49;39276.53;5004743;28;20046;-66
2023/10/25 10:51:56;;;;;;;3.67;2.65;;;;;;;-145.63;36.32;39258.94;5014978;28;20073;-66
2023/10/25 10:54:22;;;;;;;5.00;2.90;;;;;;;-145.63;36.84;39239.38;5004692;28;20080;-66
2023/10/25 10:56:49;;;;;;;5.80;2.70;;;;;;;-145.63;36.80;39288.25;4997289;28;20250;-67
2023/10/25 10:59:15;;;;;;;7.40;4.20;;;;;;;-145.63;36.52;39272.63;5011995;28;20019;-67
2023/10/25 11:01:44;;;;;;;6.55;3.03;;;;;;;-145.63;36.67;38590.13;5006171;28;20022;-66
2023/10/25 11:04:10;;;;;;;7.07;2.80;;;;;;;-145.63;36.44;39229.59;5004319;28;20061;-66
2023/10/25 11:06:35;;;;;;;5.82;3.08;;;;;;;-145.63;36.25;39264.78;4995786;28;20021;-66
2023/10/25 11:09:01;;;;;;;5.30;2.85;;;;;;;-145.63;36.45;39278.47;4991747;28;20030;-66
2023/10/25 11:11:27;;;;;;;4.88;2.88;;;;;;;-145.63;35.91;39296.09;5012340;28;20030;-65
2023/10/25 11:13:53;;;;;;;5.45;2.58;;;;;;;-145.63;36.22;39266.75;5005207;28;20038;-66
2023/10/25 11:16:19;;;;;;;6.03;2.75;;;;;;;-145.63;36.52;39258.94;5014672;28;20041;-66
2023/10/25 11:18:45;;;;;;;5.47;3.42;;;;;;;-145.63;36.73;39270.66;5006125;28;20223;-65